sensor_id;sensor_type;location;lat;lon;timestamp;temperature;humidity
78184;DHT22;67442;44.570;18.610;2023-04-24T00:00:31;22.60;60.60
78184;DHT22;67442;44.570;18.610;2023-04-24T00:02:58;22.60;60.70
78184;DHT22;67442;44.570;18.610;2023-04-24T00:05:25;22.60;60.70
78184;DHT22;67442;44.570;18.610;2023-04-24T00:07:53;22.60;60.80
78184;DHT22;67442;44.570;18.610;2023-04-24T00:10:21;22.60;60.80
78184;DHT22;67442;44.570;18.610;2023-04-24T00:12:52;22.60;60.90
78184;DHT22;67442;44.570;18.610;2023-04-24T00:15:19;22.60;61.10
78184;DHT22;67442;44.570;18.610;2023-04-24T00:17:46;22.60;60.90
78184;DHT22;67442;44.570;18.610;2023-04-24T00:20:13;22.60;60.80
78184;DHT22;67442;44.570;18.610;2023-04-24T00:22:41;22.60;60.90
78184;DHT22;67442;44.570;18.610;2023-04-24T00:25:09;22.60;60.80
78184;DHT22;67442;44.570;18.610;2023-04-24T00:27:36;22.60;60.80
78184;DHT22;67442;44.570;18.610;2023-04-24T00:30:06;22.60;60.90
78184;DHT22;67442;44.570;18.610;2023-04-24T00:32:35;22.60;60.90
78184;DHT22;67442;44.570;18.610;2023-04-24T00:35:02;22.60;61.10
78184;DHT22;67442;44.570;18.610;2023-04-24T00:37:31;22.60;61.10
78184;DHT22;67442;44.570;18.610;2023-04-24T00:39:57;22.60;61.10
78184;DHT22;67442;44.570;18.610;2023-04-24T00:42:24;22.60;60.90
78184;DHT22;67442;44.570;18.610;2023-04-24T00:44:51;22.60;60.90
78184;DHT22;67442;44.570;18.610;2023-04-24T00:47:22;22.70;60.90
78184;DHT22;67442;44.570;18.610;2023-04-24T00:49:53;22.70;60.90
78184;DHT22;67442;44.570;18.610;2023-04-24T00:52:20;22.60;60.80
78184;DHT22;67442;44.570;18.610;2023-04-24T00:54:50;22.60;60.90
78184;DHT22;67442;44.570;18.610;2023-04-24T00:57:18;22.70;61.10
78184;DHT22;67442;44.570;18.610;2023-04-24T00:59:46;22.60;61.10
78184;DHT22;67442;44.570;18.610;2023-04-24T01:02:18;22.60;61.20
78184;DHT22;67442;44.570;18.610;2023-04-24T01:04:46;22.70;61.20
78184;DHT22;67442;44.570;18.610;2023-04-24T01:07:14;22.60;61.00
78184;DHT22;67442;44.570;18.610;2023-04-24T01:09:45;22.70;60.90
78184;DHT22;67442;44.570;18.610;2023-04-24T01:12:15;22.70;60.90
78184;DHT22;67442;44.570;18.610;2023-04-24T01:14:45;22.60;60.90
78184;DHT22;67442;44.570;18.610;2023-04-24T01:17:12;22.60;60.90
78184;DHT22;67442;44.570;18.610;2023-04-24T01:19:39;22.60;61.00
78184;DHT22;67442;44.570;18.610;2023-04-24T01:22:15;22.70;61.20
78184;DHT22;67442;44.570;18.610;2023-04-24T01:24:43;22.70;61.20
78184;DHT22;67442;44.570;18.610;2023-04-24T01:27:10;22.70;61.20
78184;DHT22;67442;44.570;18.610;2023-04-24T01:29:41;22.70;61.10
78184;DHT22;67442;44.570;18.610;2023-04-24T01:32:08;22.70;61.10
78184;DHT22;67442;44.570;18.610;2023-04-24T01:34:35;22.70;61.10
78184;DHT22;67442;44.570;18.610;2023-04-24T01:37:04;22.70;61.10
78184;DHT22;67442;44.570;18.610;2023-04-24T01:39:32;22.70;61.20
78184;DHT22;67442;44.570;18.610;2023-04-24T01:42:00;22.70;61.30
78184;DHT22;67442;44.570;18.610;2023-04-24T01:44:28;22.70;61.30
78184;DHT22;67442;44.570;18.610;2023-04-24T01:46:55;22.70;61.40
78184;DHT22;67442;44.570;18.610;2023-04-24T01:49:22;22.70;61.50
78184;DHT22;67442;44.570;18.610;2023-04-24T01:51:49;22.70;61.50
78184;DHT22;67442;44.570;18.610;2023-04-24T01:54:17;22.60;61.30
78184;DHT22;67442;44.570;18.610;2023-04-24T01:56:44;22.70;61.30
78184;DHT22;67442;44.570;18.610;2023-04-24T01:59:12;22.70;61.30
78184;DHT22;67442;44.570;18.610;2023-04-24T02:01:39;22.70;61.30
78184;DHT22;67442;44.570;18.610;2023-04-24T02:04:06;22.70;61.30
78184;DHT22;67442;44.570;18.610;2023-04-24T02:06:34;22.70;61.40
78184;DHT22;67442;44.570;18.610;2023-04-24T02:09:01;22.70;61.40
78184;DHT22;67442;44.570;18.610;2023-04-24T02:11:29;22.70;61.50
78184;DHT22;67442;44.570;18.610;2023-04-24T02:13:56;22.70;61.60
78184;DHT22;67442;44.570;18.610;2023-04-24T02:16:23;22.70;61.50
78184;DHT22;67442;44.570;18.610;2023-04-24T02:18:50;22.60;61.40
78184;DHT22;67442;44.570;18.610;2023-04-24T02:21:19;22.70;61.40
78184;DHT22;67442;44.570;18.610;2023-04-24T02:23:46;22.70;61.40
78184;DHT22;67442;44.570;18.610;2023-04-24T02:26:13;22.70;61.40
78184;DHT22;67442;44.570;18.610;2023-04-24T02:28:41;22.70;61.40
78184;DHT22;67442;44.570;18.610;2023-04-24T02:31:09;22.70;61.40
78184;DHT22;67442;44.570;18.610;2023-04-24T02:33:40;22.70;61.40
78184;DHT22;67442;44.570;18.610;2023-04-24T02:36:07;22.70;61.60
78184;DHT22;67442;44.570;18.610;2023-04-24T02:38:35;22.70;61.60
78184;DHT22;67442;44.570;18.610;2023-04-24T02:41:02;22.70;61.60
78184;DHT22;67442;44.570;18.610;2023-04-24T02:43:33;22.70;61.60
78184;DHT22;67442;44.570;18.610;2023-04-24T02:46:00;22.70;61.50
78184;DHT22;67442;44.570;18.610;2023-04-24T02:48:28;22.70;61.50
78184;DHT22;67442;44.570;18.610;2023-04-24T02:50:55;22.70;61.50
78184;DHT22;67442;44.570;18.610;2023-04-24T02:53:24;22.70;61.50
78184;DHT22;67442;44.570;18.610;2023-04-24T02:55:51;22.70;61.50
78184;DHT22;67442;44.570;18.610;2023-04-24T02:58:21;22.70;61.70
78184;DHT22;67442;44.570;18.610;2023-04-24T03:00:48;22.70;61.70
78184;DHT22;67442;44.570;18.610;2023-04-24T03:03:15;22.70;61.90
78184;DHT22;67442;44.570;18.610;2023-04-24T03:05:43;22.70;61.80
78184;DHT22;67442;44.570;18.610;2023-04-24T03:08:10;22.70;61.60
78184;DHT22;67442;44.570;18.610;2023-04-24T03:10:37;22.70;61.60
78184;DHT22;67442;44.570;18.610;2023-04-24T03:13:05;22.70;61.60
78184;DHT22;67442;44.570;18.610;2023-04-24T03:15:32;22.70;61.60
78184;DHT22;67442;44.570;18.610;2023-04-24T03:17:59;22.70;61.60
78184;DHT22;67442;44.570;18.610;2023-04-24T03:20:27;22.70;61.60
78184;DHT22;67442;44.570;18.610;2023-04-24T03:22:54;22.70;61.80
78184;DHT22;67442;44.570;18.610;2023-04-24T03:25:22;22.70;61.80
78184;DHT22;67442;44.570;18.610;2023-04-24T03:27:53;22.70;61.90
78184;DHT22;67442;44.570;18.610;2023-04-24T03:30:21;22.70;61.80
78184;DHT22;67442;44.570;18.610;2023-04-24T03:32:48;22.70;61.70
78184;DHT22;67442;44.570;18.610;2023-04-24T03:35:16;22.70;61.60
78184;DHT22;67442;44.570;18.610;2023-04-24T03:37:43;22.70;61.70
78184;DHT22;67442;44.570;18.610;2023-04-24T03:40:11;22.70;61.80
78184;DHT22;67442;44.570;18.610;2023-04-24T03:42:38;22.70;61.90
78184;DHT22;67442;44.570;18.610;2023-04-24T03:45:07;22.70;61.90
78184;DHT22;67442;44.570;18.610;2023-04-24T03:47:36;22.70;62.00
78184;DHT22;67442;44.570;18.610;2023-04-24T03:50:03;22.70;62.00
78184;DHT22;67442;44.570;18.610;2023-04-24T03:52:31;22.70;62.00
78184;DHT22;67442;44.570;18.610;2023-04-24T03:54:59;22.70;62.10
78184;DHT22;67442;44.570;18.610;2023-04-24T03:57:26;22.70;62.10
78184;DHT22;67442;44.570;18.610;2023-04-24T03:59:53;22.70;62.00
78184;DHT22;67442;44.570;18.610;2023-04-24T04:02:23;22.70;62.10
78184;DHT22;67442;44.570;18.610;2023-04-24T04:04:54;22.70;62.10
78184;DHT22;67442;44.570;18.610;2023-04-24T04:07:22;22.70;62.10
78184;DHT22;67442;44.570;18.610;2023-04-24T04:09:49;22.70;62.20
78184;DHT22;67442;44.570;18.610;2023-04-24T04:12:20;22.70;62.20
78184;DHT22;67442;44.570;18.610;2023-04-24T04:14:47;22.70;62.00
78184;DHT22;67442;44.570;18.610;2023-04-24T04:17:15;22.70;62.10
78184;DHT22;67442;44.570;18.610;2023-04-24T04:19:42;22.70;62.10
78184;DHT22;67442;44.570;18.610;2023-04-24T04:22:13;22.70;62.20
78184;DHT22;67442;44.570;18.610;2023-04-24T04:24:40;22.70;62.20
78184;DHT22;67442;44.570;18.610;2023-04-24T04:27:07;22.70;62.30
78184;DHT22;67442;44.570;18.610;2023-04-24T04:29:34;22.70;62.30
78184;DHT22;67442;44.570;18.610;2023-04-24T04:32:01;22.70;62.40
78184;DHT22;67442;44.570;18.610;2023-04-24T04:34:29;22.70;62.30
78184;DHT22;67442;44.570;18.610;2023-04-24T04:36:58;22.70;62.30
78184;DHT22;67442;44.570;18.610;2023-04-24T04:39:28;22.70;62.30
78184;DHT22;67442;44.570;18.610;2023-04-24T04:41:55;22.70;62.50
78184;DHT22;67442;44.570;18.610;2023-04-24T04:44:22;22.70;62.50
78184;DHT22;67442;44.570;18.610;2023-04-24T04:46:50;22.70;62.40
78184;DHT22;67442;44.570;18.610;2023-04-24T04:49:19;22.70;62.50
78184;DHT22;67442;44.570;18.610;2023-04-24T04:51:48;22.70;62.60
78184;DHT22;67442;44.570;18.610;2023-04-24T04:54:15;22.70;62.70
78184;DHT22;67442;44.570;18.610;2023-04-24T04:56:42;22.70;62.80
78184;DHT22;67442;44.570;18.610;2023-04-24T04:59:14;22.70;62.80
78184;DHT22;67442;44.570;18.610;2023-04-24T05:01:41;22.70;62.90
78184;DHT22;67442;44.570;18.610;2023-04-24T05:04:09;22.70;62.90
78184;DHT22;67442;44.570;18.610;2023-04-24T05:06:36;22.70;63.00
78184;DHT22;67442;44.570;18.610;2023-04-24T05:09:03;22.70;62.90
78184;DHT22;67442;44.570;18.610;2023-04-24T05:11:31;22.70;62.90
78184;DHT22;67442;44.570;18.610;2023-04-24T05:13:58;22.70;62.80
78184;DHT22;67442;44.570;18.610;2023-04-24T05:16:26;22.70;62.80
78184;DHT22;67442;44.570;18.610;2023-04-24T05:18:53;22.70;62.80
78184;DHT22;67442;44.570;18.610;2023-04-24T05:21:21;22.70;62.80
78184;DHT22;67442;44.570;18.610;2023-04-24T05:23:48;22.70;62.80
78184;DHT22;67442;44.570;18.610;2023-04-24T05:26:19;22.70;62.80
78184;DHT22;67442;44.570;18.610;2023-04-24T05:28:46;22.70;62.80
78184;DHT22;67442;44.570;18.610;2023-04-24T05:31:14;22.70;62.60
78184;DHT22;67442;44.570;18.610;2023-04-24T05:33:41;22.70;62.60
78184;DHT22;67442;44.570;18.610;2023-04-24T05:36:09;22.70;62.60
78184;DHT22;67442;44.570;18.610;2023-04-24T05:38:36;22.70;62.60
78184;DHT22;67442;44.570;18.610;2023-04-24T05:41:03;22.70;62.50
78184;DHT22;67442;44.570;18.610;2023-04-24T05:43:30;22.70;62.50
78184;DHT22;67442;44.570;18.610;2023-04-24T05:45:59;22.70;62.50
78184;DHT22;67442;44.570;18.610;2023-04-24T05:48:26;22.70;62.40
78184;DHT22;67442;44.570;18.610;2023-04-24T05:50:53;22.70;62.30
78184;DHT22;67442;44.570;18.610;2023-04-24T05:53:21;22.70;62.30
78184;DHT22;67442;44.570;18.610;2023-04-24T05:55:47;22.70;62.30
78184;DHT22;67442;44.570;18.610;2023-04-24T05:58:15;22.70;62.30
78184;DHT22;67442;44.570;18.610;2023-04-24T06:00:42;22.60;62.20
78184;DHT22;67442;44.570;18.610;2023-04-24T06:03:11;22.70;62.20
78184;DHT22;67442;44.570;18.610;2023-04-24T06:05:38;22.60;62.10
78184;DHT22;67442;44.570;18.610;2023-04-24T06:08:06;22.60;62.10
78184;DHT22;67442;44.570;18.610;2023-04-24T06:10:33;22.60;62.10
78184;DHT22;67442;44.570;18.610;2023-04-24T06:13:00;22.70;62.10
78184;DHT22;67442;44.570;18.610;2023-04-24T06:15:29;22.60;62.10
78184;DHT22;67442;44.570;18.610;2023-04-24T06:17:56;22.60;62.00
78184;DHT22;67442;44.570;18.610;2023-04-24T06:20:23;22.60;62.00
78184;DHT22;67442;44.570;18.610;2023-04-24T06:22:50;22.60;61.90
78184;DHT22;67442;44.570;18.610;2023-04-24T06:25:17;22.60;62.00
78184;DHT22;67442;44.570;18.610;2023-04-24T06:27:45;22.60;61.90
78184;DHT22;67442;44.570;18.610;2023-04-24T06:30:12;22.60;61.90
78184;DHT22;67442;44.570;18.610;2023-04-24T06:32:39;22.60;61.80
78184;DHT22;67442;44.570;18.610;2023-04-24T06:35:08;22.60;61.80
78184;DHT22;67442;44.570;18.610;2023-04-24T06:37:36;22.60;61.90
78184;DHT22;67442;44.570;18.610;2023-04-24T06:40:04;22.60;61.80
78184;DHT22;67442;44.570;18.610;2023-04-24T06:42:33;22.60;61.80
78184;DHT22;67442;44.570;18.610;2023-04-24T06:45:01;22.60;61.80
78184;DHT22;67442;44.570;18.610;2023-04-24T06:47:28;22.60;61.80
78184;DHT22;67442;44.570;18.610;2023-04-24T06:49:55;22.60;61.70
78184;DHT22;67442;44.570;18.610;2023-04-24T06:52:26;22.60;61.60
78184;DHT22;67442;44.570;18.610;2023-04-24T06:54:59;22.60;61.60
78184;DHT22;67442;44.570;18.610;2023-04-24T06:57:32;22.60;61.60
78184;DHT22;67442;44.570;18.610;2023-04-24T06:59:58;22.50;61.60
78184;DHT22;67442;44.570;18.610;2023-04-24T07:02:25;22.60;61.60
78184;DHT22;67442;44.570;18.610;2023-04-24T07:04:53;22.50;61.50
78184;DHT22;67442;44.570;18.610;2023-04-24T07:07:19;22.60;61.60
78184;DHT22;67442;44.570;18.610;2023-04-24T07:09:47;22.60;61.50
78184;DHT22;67442;44.570;18.610;2023-04-24T07:12:17;22.60;61.50
78184;DHT22;67442;44.570;18.610;2023-04-24T07:14:47;22.50;61.40
78184;DHT22;67442;44.570;18.610;2023-04-24T07:17:14;22.60;61.50
78184;DHT22;67442;44.570;18.610;2023-04-24T07:19:44;22.60;61.50
78184;DHT22;67442;44.570;18.610;2023-04-24T07:22:12;22.60;61.50
78184;DHT22;67442;44.570;18.610;2023-04-24T07:24:44;22.50;61.40
78184;DHT22;67442;44.570;18.610;2023-04-24T07:27:10;22.50;61.40
78184;DHT22;67442;44.570;18.610;2023-04-24T07:29:40;22.50;61.40
78184;DHT22;67442;44.570;18.610;2023-04-24T07:32:06;22.50;61.30
78184;DHT22;67442;44.570;18.610;2023-04-24T07:34:33;22.50;61.30
78184;DHT22;67442;44.570;18.610;2023-04-24T07:37:01;22.50;61.30
78184;DHT22;67442;44.570;18.610;2023-04-24T07:39:28;22.50;61.20
78184;DHT22;67442;44.570;18.610;2023-04-24T07:41:59;22.50;61.20
78184;DHT22;67442;44.570;18.610;2023-04-24T07:44:28;22.50;61.20
78184;DHT22;67442;44.570;18.610;2023-04-24T07:46:56;22.50;61.20
78184;DHT22;67442;44.570;18.610;2023-04-24T07:49:27;22.50;61.20
78184;DHT22;67442;44.570;18.610;2023-04-24T07:51:54;22.50;61.20
78184;DHT22;67442;44.570;18.610;2023-04-24T07:54:21;22.50;61.20
78184;DHT22;67442;44.570;18.610;2023-04-24T07:56:49;22.50;61.20
78184;DHT22;67442;44.570;18.610;2023-04-24T07:59:16;22.50;61.20
78184;DHT22;67442;44.570;18.610;2023-04-24T08:01:44;22.50;61.10
78184;DHT22;67442;44.570;18.610;2023-04-24T08:04:12;22.50;61.10
78184;DHT22;67442;44.570;18.610;2023-04-24T08:06:39;22.50;61.10
78184;DHT22;67442;44.570;18.610;2023-04-24T08:09:06;22.50;61.10
78184;DHT22;67442;44.570;18.610;2023-04-24T08:11:33;22.50;61.10
78184;DHT22;67442;44.570;18.610;2023-04-24T08:14:01;22.50;61.10
78184;DHT22;67442;44.570;18.610;2023-04-24T08:16:28;22.50;61.10
78184;DHT22;67442;44.570;18.610;2023-04-24T08:18:55;22.50;61.10
78184;DHT22;67442;44.570;18.610;2023-04-24T08:21:23;22.50;61.00
78184;DHT22;67442;44.570;18.610;2023-04-24T08:23:50;22.50;61.00
78184;DHT22;67442;44.570;18.610;2023-04-24T08:26:17;22.50;61.00
78184;DHT22;67442;44.570;18.610;2023-04-24T08:28:44;22.50;61.00
78184;DHT22;67442;44.570;18.610;2023-04-24T08:31:12;22.50;60.90
78184;DHT22;67442;44.570;18.610;2023-04-24T08:33:40;22.50;60.90
78184;DHT22;67442;44.570;18.610;2023-04-24T08:36:07;22.50;60.90
78184;DHT22;67442;44.570;18.610;2023-04-24T08:38:33;22.50;60.90
78184;DHT22;67442;44.570;18.610;2023-04-24T08:41:01;22.50;61.00
78184;DHT22;67442;44.570;18.610;2023-04-24T08:43:33;22.50;60.90
78184;DHT22;67442;44.570;18.610;2023-04-24T08:46:05;22.50;60.90
78184;DHT22;67442;44.570;18.610;2023-04-24T08:48:32;22.50;60.90
78184;DHT22;67442;44.570;18.610;2023-04-24T08:50:59;22.50;60.80
78184;DHT22;67442;44.570;18.610;2023-04-24T08:53:28;22.50;61.60
78184;DHT22;67442;44.570;18.610;2023-04-24T08:55:57;22.50;60.80
78184;DHT22;67442;44.570;18.610;2023-04-24T08:58:28;22.50;60.80
78184;DHT22;67442;44.570;18.610;2023-04-24T09:00:55;22.50;60.80
78184;DHT22;67442;44.570;18.610;2023-04-24T09:03:21;22.50;60.80
78184;DHT22;67442;44.570;18.610;2023-04-24T09:05:49;22.50;60.80
78184;DHT22;67442;44.570;18.610;2023-04-24T09:08:19;22.50;60.80
78184;DHT22;67442;44.570;18.610;2023-04-24T09:10:50;22.50;60.70
78184;DHT22;67442;44.570;18.610;2023-04-24T09:13:19;22.50;60.70
78184;DHT22;67442;44.570;18.610;2023-04-24T09:15:46;22.50;60.70
78184;DHT22;67442;44.570;18.610;2023-04-24T09:18:17;22.50;60.70
78184;DHT22;67442;44.570;18.610;2023-04-24T09:21:06;22.50;60.70
78184;DHT22;67442;44.570;18.610;2023-04-24T09:23:33;22.50;60.70
78184;DHT22;67442;44.570;18.610;2023-04-24T09:26:04;22.50;60.70
78184;DHT22;67442;44.570;18.610;2023-04-24T09:28:39;22.50;60.70
78184;DHT22;67442;44.570;18.610;2023-04-24T09:31:11;22.50;60.70
78184;DHT22;67442;44.570;18.610;2023-04-24T09:33:56;22.50;60.60
78184;DHT22;67442;44.570;18.610;2023-04-24T09:39:00;22.50;60.60
78184;DHT22;67442;44.570;18.610;2023-04-24T09:41:28;22.50;60.60
78184;DHT22;67442;44.570;18.610;2023-04-24T09:43:56;22.40;60.50
78184;DHT22;67442;44.570;18.610;2023-04-24T09:46:31;22.50;60.60
78184;DHT22;67442;44.570;18.610;2023-04-24T09:49:08;22.40;60.50
78184;DHT22;67442;44.570;18.610;2023-04-24T09:51:37;22.50;60.60
78184;DHT22;67442;44.570;18.610;2023-04-24T09:54:04;22.50;60.50
78184;DHT22;67442;44.570;18.610;2023-04-24T09:56:43;22.50;60.60
78184;DHT22;67442;44.570;18.610;2023-04-24T09:59:12;22.50;60.50
78184;DHT22;67442;44.570;18.610;2023-04-24T10:01:39;22.50;60.50
78184;DHT22;67442;44.570;18.610;2023-04-24T10:04:16;22.50;60.50
78184;DHT22;67442;44.570;18.610;2023-04-24T10:06:44;22.50;60.50
78184;DHT22;67442;44.570;18.610;2023-04-24T10:09:12;22.50;60.50
78184;DHT22;67442;44.570;18.610;2023-04-24T10:11:45;22.40;60.50
78184;DHT22;67442;44.570;18.610;2023-04-24T10:14:16;22.50;60.50
78184;DHT22;67442;44.570;18.610;2023-04-24T10:16:44;22.50;60.50
78184;DHT22;67442;44.570;18.610;2023-04-24T10:19:14;22.50;60.50
78184;DHT22;67442;44.570;18.610;2023-04-24T10:21:43;22.50;60.50
78184;DHT22;67442;44.570;18.610;2023-04-24T10:24:33;22.50;60.50
78184;DHT22;67442;44.570;18.610;2023-04-24T10:27:06;22.50;60.50
78184;DHT22;67442;44.570;18.610;2023-04-24T10:29:39;22.50;60.50
78184;DHT22;67442;44.570;18.610;2023-04-24T10:32:11;22.50;60.40
78184;DHT22;67442;44.570;18.610;2023-04-24T10:34:38;22.40;60.40
78184;DHT22;67442;44.570;18.610;2023-04-24T10:37:06;22.50;60.40
78184;DHT22;67442;44.570;18.610;2023-04-24T10:39:33;22.50;60.40
78184;DHT22;67442;44.570;18.610;2023-04-24T10:42:01;22.50;60.40
78184;DHT22;67442;44.570;18.610;2023-04-24T10:44:36;22.40;60.30
78184;DHT22;67442;44.570;18.610;2023-04-24T10:47:03;22.50;60.40
78184;DHT22;67442;44.570;18.610;2023-04-24T10:49:31;22.50;60.40
78184;DHT22;67442;44.570;18.610;2023-04-24T10:52:03;22.40;60.30
78184;DHT22;67442;44.570;18.610;2023-04-24T10:54:41;22.40;60.20
78184;DHT22;67442;44.570;18.610;2023-04-24T10:57:25;22.50;60.30
78184;DHT22;67442;44.570;18.610;2023-04-24T11:00:19;22.40;61.10
78184;DHT22;67442;44.570;18.610;2023-04-24T11:02:48;22.50;60.40
78184;DHT22;67442;44.570;18.610;2023-04-24T11:05:21;22.50;60.30
78184;DHT22;67442;44.570;18.610;2023-04-24T11:08:21;22.50;60.30
78184;DHT22;67442;44.570;18.610;2023-04-24T11:11:12;22.50;60.30
78184;DHT22;67442;44.570;18.610;2023-04-24T11:16:52;22.40;60.20
78184;DHT22;67442;44.570;18.610;2023-04-24T11:19:22;22.40;60.20
78184;DHT22;67442;44.570;18.610;2023-04-24T11:22:02;22.50;60.30
78184;DHT22;67442;44.570;18.610;2023-04-24T11:27:07;22.50;60.20
78184;DHT22;67442;44.570;18.610;2023-04-24T11:32:23;22.40;60.20
78184;DHT22;67442;44.570;18.610;2023-04-24T11:35:14;22.50;60.20
78184;DHT22;67442;44.570;18.610;2023-04-24T11:37:46;22.40;60.20
78184;DHT22;67442;44.570;18.610;2023-04-24T11:40:16;22.40;60.10
78184;DHT22;67442;44.570;18.610;2023-04-24T11:42:47;22.40;60.90
78184;DHT22;67442;44.570;18.610;2023-04-24T11:45:16;22.50;60.20
78184;DHT22;67442;44.570;18.610;2023-04-24T11:47:44;22.40;60.10
78184;DHT22;67442;44.570;18.610;2023-04-24T11:50:15;22.50;60.20
78184;DHT22;67442;44.570;18.610;2023-04-24T11:52:47;22.40;60.20
78184;DHT22;67442;44.570;18.610;2023-04-24T11:57:45;22.50;60.20
78184;DHT22;67442;44.570;18.610;2023-04-24T12:00:32;22.40;60.10
78184;DHT22;67442;44.570;18.610;2023-04-24T12:03:09;22.40;60.10
78184;DHT22;67442;44.570;18.610;2023-04-24T12:05:37;22.50;60.10
78184;DHT22;67442;44.570;18.610;2023-04-24T12:08:04;22.50;60.20
78184;DHT22;67442;44.570;18.610;2023-04-24T12:10:33;22.40;60.10
78184;DHT22;67442;44.570;18.610;2023-04-24T12:13:01;22.50;60.10
78184;DHT22;67442;44.570;18.610;2023-04-24T12:15:28;22.40;60.10
78184;DHT22;67442;44.570;18.610;2023-04-24T12:17:56;22.40;60.10
78184;DHT22;67442;44.570;18.610;2023-04-24T12:20:29;22.40;60.10
78184;DHT22;67442;44.570;18.610;2023-04-24T12:23:00;22.40;60.00
78184;DHT22;67442;44.570;18.610;2023-04-24T12:25:34;22.50;60.10
78184;DHT22;67442;44.570;18.610;2023-04-24T12:30:32;22.40;60.00
78184;DHT22;67442;44.570;18.610;2023-04-24T12:32:59;22.50;60.10
78184;DHT22;67442;44.570;18.610;2023-04-24T12:35:31;22.50;60.10
78184;DHT22;67442;44.570;18.610;2023-04-24T12:38:07;22.40;60.00
78184;DHT22;67442;44.570;18.610;2023-04-24T12:40:34;22.40;60.00
78184;DHT22;67442;44.570;18.610;2023-04-24T12:43:01;22.40;60.00
78184;DHT22;67442;44.570;18.610;2023-04-24T12:45:35;22.40;60.00
78184;DHT22;67442;44.570;18.610;2023-04-24T12:48:02;22.40;60.00
78184;DHT22;67442;44.570;18.610;2023-04-24T12:50:30;22.40;60.00
78184;DHT22;67442;44.570;18.610;2023-04-24T12:52:57;22.50;60.00
78184;DHT22;67442;44.570;18.610;2023-04-24T12:55:24;22.40;59.90
78184;DHT22;67442;44.570;18.610;2023-04-24T12:57:52;22.50;60.00
78184;DHT22;67442;44.570;18.610;2023-04-24T13:00:21;22.40;59.90
78184;DHT22;67442;44.570;18.610;2023-04-24T13:02:48;22.50;60.10
78184;DHT22;67442;44.570;18.610;2023-04-24T13:05:15;22.40;59.90
78184;DHT22;67442;44.570;18.610;2023-04-24T13:07:43;22.40;59.90
78184;DHT22;67442;44.570;18.610;2023-04-24T13:10:10;22.40;59.90
78184;DHT22;67442;44.570;18.610;2023-04-24T13:12:39;22.40;60.00
78184;DHT22;67442;44.570;18.610;2023-04-24T13:15:07;22.40;59.90
78184;DHT22;67442;44.570;18.610;2023-04-24T13:17:35;22.40;59.90
78184;DHT22;67442;44.570;18.610;2023-04-24T13:20:04;22.40;59.90
78184;DHT22;67442;44.570;18.610;2023-04-24T13:22:31;22.40;59.90
78184;DHT22;67442;44.570;18.610;2023-04-24T13:24:59;22.40;59.90
78184;DHT22;67442;44.570;18.610;2023-04-24T13:27:27;22.50;60.00
78184;DHT22;67442;44.570;18.610;2023-04-24T13:29:55;22.40;59.90
78184;DHT22;67442;44.570;18.610;2023-04-24T13:32:22;22.40;59.90
78184;DHT22;67442;44.570;18.610;2023-04-24T13:34:49;22.40;59.90
78184;DHT22;67442;44.570;18.610;2023-04-24T13:37:16;22.40;59.90
78184;DHT22;67442;44.570;18.610;2023-04-24T13:39:44;22.40;59.90
78184;DHT22;67442;44.570;18.610;2023-04-24T13:42:11;22.40;59.90
78184;DHT22;67442;44.570;18.610;2023-04-24T13:44:38;22.40;59.90
78184;DHT22;67442;44.570;18.610;2023-04-24T13:47:06;22.40;59.90
78184;DHT22;67442;44.570;18.610;2023-04-24T13:49:32;22.50;59.90
78184;DHT22;67442;44.570;18.610;2023-04-24T13:52:04;22.40;59.90
78184;DHT22;67442;44.570;18.610;2023-04-24T13:54:31;22.40;59.90
78184;DHT22;67442;44.570;18.610;2023-04-24T13:56:58;22.40;59.90
78184;DHT22;67442;44.570;18.610;2023-04-24T13:59:30;22.40;59.80
78184;DHT22;67442;44.570;18.610;2023-04-24T14:01:57;22.40;59.90
78184;DHT22;67442;44.570;18.610;2023-04-24T14:04:28;22.40;59.80
78184;DHT22;67442;44.570;18.610;2023-04-24T14:06:56;22.40;59.90
78184;DHT22;67442;44.570;18.610;2023-04-24T14:09:23;22.40;59.80
78184;DHT22;67442;44.570;18.610;2023-04-24T14:11:51;22.40;59.80
78184;DHT22;67442;44.570;18.610;2023-04-24T14:14:18;22.40;59.80
78184;DHT22;67442;44.570;18.610;2023-04-24T14:16:45;22.40;59.80
78184;DHT22;67442;44.570;18.610;2023-04-24T14:19:12;22.40;59.80
78184;DHT22;67442;44.570;18.610;2023-04-24T14:21:43;22.40;59.80
78184;DHT22;67442;44.570;18.610;2023-04-24T14:24:11;22.40;59.80
78184;DHT22;67442;44.570;18.610;2023-04-24T14:26:38;22.40;59.80
78184;DHT22;67442;44.570;18.610;2023-04-24T14:29:09;22.50;59.80
78184;DHT22;67442;44.570;18.610;2023-04-24T14:31:36;22.40;59.80
78184;DHT22;67442;44.570;18.610;2023-04-24T14:34:06;22.40;59.80
78184;DHT22;67442;44.570;18.610;2023-04-24T14:36:34;22.40;59.80
78184;DHT22;67442;44.570;18.610;2023-04-24T14:39:05;22.40;59.80
78184;DHT22;67442;44.570;18.610;2023-04-24T14:41:33;22.40;59.80
78184;DHT22;67442;44.570;18.610;2023-04-24T14:44:02;22.40;59.80
78184;DHT22;67442;44.570;18.610;2023-04-24T14:46:29;22.40;59.80
78184;DHT22;67442;44.570;18.610;2023-04-24T14:49:00;22.40;59.80
78184;DHT22;67442;44.570;18.610;2023-04-24T14:51:30;22.40;59.70
78184;DHT22;67442;44.570;18.610;2023-04-24T14:54:01;22.40;59.80
78184;DHT22;67442;44.570;18.610;2023-04-24T14:56:29;22.40;59.70
78184;DHT22;67442;44.570;18.610;2023-04-24T14:58:56;22.40;59.70
78184;DHT22;67442;44.570;18.610;2023-04-24T15:01:23;22.40;59.70
78184;DHT22;67442;44.570;18.610;2023-04-24T15:03:51;22.40;59.70
78184;DHT22;67442;44.570;18.610;2023-04-24T15:06:19;22.40;59.80
78184;DHT22;67442;44.570;18.610;2023-04-24T15:08:49;22.40;59.70
78184;DHT22;67442;44.570;18.610;2023-04-24T15:11:17;22.40;59.70
78184;DHT22;67442;44.570;18.610;2023-04-24T15:13:44;22.40;59.70
78184;DHT22;67442;44.570;18.610;2023-04-24T15:16:11;22.40;59.70
78184;DHT22;67442;44.570;18.610;2023-04-24T15:18:39;22.40;59.80
78184;DHT22;67442;44.570;18.610;2023-04-24T15:21:06;22.40;59.70
78184;DHT22;67442;44.570;18.610;2023-04-24T15:23:33;22.40;59.70
78184;DHT22;67442;44.570;18.610;2023-04-24T15:26:00;22.40;59.80
78184;DHT22;67442;44.570;18.610;2023-04-24T15:28:28;22.40;59.70
78184;DHT22;67442;44.570;18.610;2023-04-24T15:30:55;22.40;59.70
78184;DHT22;67442;44.570;18.610;2023-04-24T15:33:23;22.40;59.70
78184;DHT22;67442;44.570;18.610;2023-04-24T15:35:52;22.40;59.70
78184;DHT22;67442;44.570;18.610;2023-04-24T15:38:19;22.40;59.70
78184;DHT22;67442;44.570;18.610;2023-04-24T15:40:46;22.40;59.70